sensor_id;sensor_type;location;lat;lon;timestamp;noise_LAeq;noise_LA_min;noise_LA_max;noise_LA01;noise_LA95
66462;Laerm;56839;52.208;5.074;2022-08-05T00:00:06;36.62;32.65;45.20;;
66462;Laerm;56839;52.208;5.074;2022-08-05T00:00:17;43.51;33.14;55.65;;
66462;Laerm;56839;52.208;5.074;2022-08-05T00:00:37;39.27;32.13;52.61;;
66462;Laerm;56839;52.208;5.074;2022-08-05T00:00:56;36.94;31.44;48.46;;
66462;Laerm;56839;52.208;5.074;2022-08-05T00:01:16;36.50;32.11;46.32;;
66462;Laerm;56839;52.208;5.074;2022-08-05T00:01:33;38.06;31.17;49.46;;
66462;Laerm;56839;52.208;5.074;2022-08-05T00:01:47;34.81;30.78;44.22;;
66462;Laerm;56839;52.208;5.074;2022-08-05T00:02:03;32.70;30.58;40.09;;
66462;Laerm;56839;52.208;5.074;2022-08-05T00:02:16;34.41;31.05;41.78;;
66462;Laerm;56839;52.208;5.074;2022-08-05T00:02:30;32.92;30.45;41.06;;
66462;Laerm;56839;52.208;5.074;2022-08-05T00:02:45;34.23;30.15;43.26;;
66462;Laerm;56839;52.208;5.074;2022-08-05T00:02:56;33.93;30.55;40.61;;
66462;Laerm;56839;52.208;5.074;2022-08-05T00:03:13;33.68;29.92;38.98;;
66462;Laerm;56839;52.208;5.074;2022-08-05T00:03:26;31.14;29.67;34.03;;
66462;Laerm;56839;52.208;5.074;2022-08-05T00:03:40;33.50;30.28;41.36;;
66462;Laerm;56839;52.208;5.074;2022-08-05T00:03:55;32.98;29.51;41.20;;
66462;Laerm;56839;52.208;5.074;2022-08-05T00:04:06;32.95;30.47;39.81;;
66462;Laerm;56839;52.208;5.074;2022-08-05T00:04:17;33.67;30.32;40.58;;
66462;Laerm;56839;52.208;5.074;2022-08-05T00:04:28;32.54;29.94;37.78;;
66462;Laerm;56839;52.208;5.074;2022-08-05T00:04:39;32.62;29.86;46.15;;
66462;Laerm;56839;52.208;5.074;2022-08-05T00:04:50;33.26;29.89;43.62;;
66462;Laerm;56839;52.208;5.074;2022-08-05T00:05:03;32.41;30.20;38.80;;
66462;Laerm;56839;52.208;5.074;2022-08-05T00:05:15;32.10;29.59;40.85;;
66462;Laerm;56839;52.208;5.074;2022-08-05T00:05:26;32.87;30.46;40.19;;
66462;Laerm;56839;52.208;5.074;2022-08-05T00:05:40;34.29;29.99;41.55;;
66462;Laerm;56839;52.208;5.074;2022-08-05T00:05:53;34.11;29.73;46.83;;
66462;Laerm;56839;52.208;5.074;2022-08-05T00:06:04;33.39;30.18;41.23;;
66462;Laerm;56839;52.208;5.074;2022-08-05T00:06:16;33.45;30.00;41.68;;
66462;Laerm;56839;52.208;5.074;2022-08-05T00:06:27;34.57;30.52;49.13;;
66462;Laerm;56839;52.208;5.074;2022-08-05T00:06:38;32.06;29.80;36.37;;
66462;Laerm;56839;52.208;5.074;2022-08-05T00:06:49;32.30;29.76;39.69;;
66462;Laerm;56839;52.208;5.074;2022-08-05T00:07:00;35.02;31.26;43.42;;
66462;Laerm;56839;52.208;5.074;2022-08-05T00:07:11;38.95;32.68;48.07;;
66462;Laerm;56839;52.208;5.074;2022-08-05T00:07:22;40.83;33.84;49.06;;
66462;Laerm;56839;52.208;5.074;2022-08-05T00:07:36;40.87;33.07;52.56;;
66462;Laerm;56839;52.208;5.074;2022-08-05T00:07:47;37.04;30.99;46.48;;
66462;Laerm;56839;52.208;5.074;2022-08-05T00:07:58;35.53;31.79;42.37;;
66462;Laerm;56839;52.208;5.074;2022-08-05T00:08:09;35.71;32.14;45.73;;
66462;Laerm;56839;52.208;5.074;2022-08-05T00:08:19;37.14;33.36;45.13;;
66462;Laerm;56839;52.208;5.074;2022-08-05T00:08:31;37.44;33.06;43.20;;
66462;Laerm;56839;52.208;5.074;2022-08-05T00:08:42;35.23;30.38;43.66;;
66462;Laerm;56839;52.208;5.074;2022-08-05T00:08:55;33.47;30.78;40.54;;
66462;Laerm;56839;52.208;5.074;2022-08-05T00:09:06;33.91;31.28;40.60;;
66462;Laerm;56839;52.208;5.074;2022-08-05T00:09:17;33.86;31.30;40.17;;
66462;Laerm;56839;52.208;5.074;2022-08-05T00:09:28;40.09;31.24;51.69;;
66462;Laerm;56839;52.208;5.074;2022-08-05T00:09:39;34.47;32.24;39.30;;
66462;Laerm;56839;52.208;5.074;2022-08-05T00:09:50;34.53;32.40;39.17;;
66462;Laerm;56839;52.208;5.074;2022-08-05T00:10:00;36.03;33.39;42.64;;
66462;Laerm;56839;52.208;5.074;2022-08-05T00:10:11;42.21;34.31;53.15;;
66462;Laerm;56839;52.208;5.074;2022-08-05T00:10:22;38.75;34.34;48.26;;
66462;Laerm;56839;52.208;5.074;2022-08-05T00:10:33;37.63;32.06;44.90;;
66462;Laerm;56839;52.208;5.074;2022-08-05T00:10:43;36.82;33.86;43.89;;
66462;Laerm;56839;52.208;5.074;2022-08-05T00:10:55;36.22;33.08;42.35;;
66462;Laerm;56839;52.208;5.074;2022-08-05T00:11:10;37.72;32.79;43.28;;
66462;Laerm;56839;52.208;5.074;2022-08-05T00:11:22;34.78;32.20;40.60;;
66462;Laerm;56839;52.208;5.074;2022-08-05T00:11:32;35.55;32.75;41.46;;
66462;Laerm;56839;52.208;5.074;2022-08-05T00:11:43;35.24;32.23;42.40;;
66462;Laerm;56839;52.208;5.074;2022-08-05T00:11:53;33.86;31.86;37.87;;
66462;Laerm;56839;52.208;5.074;2022-08-05T00:12:14;33.62;31.70;37.30;;
66462;Laerm;56839;52.208;5.074;2022-08-05T00:12:25;33.93;30.72;39.92;;
66462;Laerm;56839;52.208;5.074;2022-08-05T00:12:36;32.65;30.01;38.41;;
66462;Laerm;56839;52.208;5.074;2022-08-05T00:12:46;34.92;30.92;42.12;;
66462;Laerm;56839;52.208;5.074;2022-08-05T00:12:57;34.79;30.61;43.76;;
66462;Laerm;56839;52.208;5.074;2022-08-05T00:13:09;37.12;31.91;48.32;;
66462;Laerm;56839;52.208;5.074;2022-08-05T00:13:22;35.31;31.21;45.64;;
66462;Laerm;56839;52.208;5.074;2022-08-05T00:13:33;37.57;32.17;45.37;;
66462;Laerm;56839;52.208;5.074;2022-08-05T00:14:03;39.83;32.06;48.48;;
66462;Laerm;56839;52.208;5.074;2022-08-05T00:14:16;35.97;31.74;46.47;;
66462;Laerm;56839;52.208;5.074;2022-08-05T00:14:29;35.35;30.80;46.04;;
66462;Laerm;56839;52.208;5.074;2022-08-05T00:14:41;33.47;30.44;46.50;;
66462;Laerm;56839;52.208;5.074;2022-08-05T00:14:51;33.83;30.11;40.77;;
66462;Laerm;56839;52.208;5.074;2022-08-05T00:15:02;36.79;30.96;43.31;;
66462;Laerm;56839;52.208;5.074;2022-08-05T00:15:12;33.40;29.87;41.81;;
66462;Laerm;56839;52.208;5.074;2022-08-05T00:15:23;37.02;31.32;47.81;;
66462;Laerm;56839;52.208;5.074;2022-08-05T00:15:33;42.27;34.06;52.86;;
66462;Laerm;56839;52.208;5.074;2022-08-05T00:15:44;40.36;33.16;51.18;;
66462;Laerm;56839;52.208;5.074;2022-08-05T00:15:54;40.73;34.66;49.98;;
66462;Laerm;56839;52.208;5.074;2022-08-05T00:16:05;37.79;31.74;44.67;;
66462;Laerm;56839;52.208;5.074;2022-08-05T00:16:16;41.07;34.29;48.92;;
66462;Laerm;56839;52.208;5.074;2022-08-05T00:16:26;36.49;32.06;46.60;;
66462;Laerm;56839;52.208;5.074;2022-08-05T00:16:37;35.54;31.55;46.83;;
66462;Laerm;56839;52.208;5.074;2022-08-05T00:16:47;36.70;31.84;47.01;;
66462;Laerm;56839;52.208;5.074;2022-08-05T00:16:57;34.92;31.18;42.54;;
66462;Laerm;56839;52.208;5.074;2022-08-05T00:17:08;41.52;31.65;57.75;;
66462;Laerm;56839;52.208;5.074;2022-08-05T00:17:18;36.10;32.95;43.06;;
66462;Laerm;56839;52.208;5.074;2022-08-05T00:17:28;36.73;31.82;44.36;;
66462;Laerm;56839;52.208;5.074;2022-08-05T00:17:39;37.00;32.82;45.84;;
66462;Laerm;56839;52.208;5.074;2022-08-05T00:17:49;36.80;33.35;42.93;;
66462;Laerm;56839;52.208;5.074;2022-08-05T00:17:59;40.88;33.46;49.64;;
66462;Laerm;56839;52.208;5.074;2022-08-05T00:18:10;39.30;32.67;54.06;;
66462;Laerm;56839;52.208;5.074;2022-08-05T00:18:20;37.02;32.41;49.11;;
66462;Laerm;56839;52.208;5.074;2022-08-05T00:18:31;39.15;32.74;45.47;;
66462;Laerm;56839;52.208;5.074;2022-08-05T00:18:46;39.36;32.74;52.40;;
66462;Laerm;56839;52.208;5.074;2022-08-05T00:18:56;39.91;32.13;52.51;;
66462;Laerm;56839;52.208;5.074;2022-08-05T00:19:07;45.65;33.19;60.91;;
66462;Laerm;56839;52.208;5.074;2022-08-05T00:19:17;44.11;34.52;57.85;;
66462;Laerm;56839;52.208;5.074;2022-08-05T00:19:28;38.94;32.38;51.65;;
66462;Laerm;56839;52.208;5.074;2022-08-05T00:19:38;36.27;31.78;44.37;;
66462;Laerm;56839;52.208;5.074;2022-08-05T00:19:49;35.55;31.73;47.34;;
66462;Laerm;56839;52.208;5.074;2022-08-05T00:19:59;38.52;32.63;46.69;;
66462;Laerm;56839;52.208;5.074;2022-08-05T00:20:09;43.40;34.49;56.41;;
66462;Laerm;56839;52.208;5.074;2022-08-05T00:20:20;41.28;34.94;52.36;;
66462;Laerm;56839;52.208;5.074;2022-08-05T00:20:30;42.03;34.29;59.40;;
66462;Laerm;56839;52.208;5.074;2022-08-05T00:20:41;40.78;34.83;49.55;;
66462;Laerm;56839;52.208;5.074;2022-08-05T00:20:51;40.53;34.50;49.71;;
66462;Laerm;56839;52.208;5.074;2022-08-05T00:21:02;42.51;33.32;55.40;;
66462;Laerm;56839;52.208;5.074;2022-08-05T00:21:13;37.12;31.75;44.64;;
66462;Laerm;56839;52.208;5.074;2022-08-05T00:21:24;35.76;31.36;48.57;;
66462;Laerm;56839;52.208;5.074;2022-08-05T00:21:35;41.25;33.75;55.03;;
66462;Laerm;56839;52.208;5.074;2022-08-05T00:21:46;37.31;32.54;49.06;;
66462;Laerm;56839;52.208;5.074;2022-08-05T00:21:56;39.09;32.81;50.42;;
66462;Laerm;56839;52.208;5.074;2022-08-05T00:22:07;39.99;33.10;50.56;;
66462;Laerm;56839;52.208;5.074;2022-08-05T00:22:17;39.92;35.84;48.30;;
66462;Laerm;56839;52.208;5.074;2022-08-05T00:22:28;37.55;33.51;44.98;;
66462;Laerm;56839;52.208;5.074;2022-08-05T00:22:39;36.04;32.35;42.80;;
66462;Laerm;56839;52.208;5.074;2022-08-05T00:22:50;40.60;33.03;50.17;;
66462;Laerm;56839;52.208;5.074;2022-08-05T00:23:00;41.82;34.08;51.26;;
66462;Laerm;56839;52.208;5.074;2022-08-05T00:23:11;44.88;36.40;58.64;;
66462;Laerm;56839;52.208;5.074;2022-08-05T00:23:22;40.28;34.60;53.10;;
66462;Laerm;56839;52.208;5.074;2022-08-05T00:23:33;39.92;33.01;49.15;;
66462;Laerm;56839;52.208;5.074;2022-08-05T00:23:45;35.78;32.23;41.94;;
66462;Laerm;56839;52.208;5.074;2022-08-05T00:23:56;36.44;32.13;42.51;;
66462;Laerm;56839;52.208;5.074;2022-08-05T00:24:10;35.78;31.37;44.62;;
66462;Laerm;56839;52.208;5.074;2022-08-05T00:24:21;36.55;32.51;44.41;;
66462;Laerm;56839;52.208;5.074;2022-08-05T00:24:31;40.77;33.09;50.84;;
66462;Laerm;56839;52.208;5.074;2022-08-05T00:24:42;38.36;31.93;49.47;;
66462;Laerm;56839;52.208;5.074;2022-08-05T00:24:53;37.22;32.21;49.68;;
66462;Laerm;56839;52.208;5.074;2022-08-05T00:25:03;40.00;34.17;50.46;;
66462;Laerm;56839;52.208;5.074;2022-08-05T00:25:14;41.44;33.83;50.88;;
66462;Laerm;56839;52.208;5.074;2022-08-05T00:25:25;37.91;32.34;48.05;;
66462;Laerm;56839;52.208;5.074;2022-08-05T00:25:35;36.06;31.93;45.53;;
66462;Laerm;56839;52.208;5.074;2022-08-05T00:25:46;35.30;32.13;47.02;;
66462;Laerm;56839;52.208;5.074;2022-08-05T00:25:57;37.61;31.72;50.53;;
66462;Laerm;56839;52.208;5.074;2022-08-05T00:26:08;36.85;31.85;46.16;;
66462;Laerm;56839;52.208;5.074;2022-08-05T00:26:19;39.52;33.79;51.18;;
66462;Laerm;56839;52.208;5.074;2022-08-05T00:26:30;39.08;34.83;48.69;;
66462;Laerm;56839;52.208;5.074;2022-08-05T00:26:41;36.95;33.01;45.82;;
66462;Laerm;56839;52.208;5.074;2022-08-05T00:26:53;37.34;33.30;45.33;;
66462;Laerm;56839;52.208;5.074;2022-08-05T00:27:03;36.21;32.81;42.09;;
66462;Laerm;56839;52.208;5.074;2022-08-05T00:27:14;38.74;32.46;46.91;;
66462;Laerm;56839;52.208;5.074;2022-08-05T00:27:26;40.04;34.06;46.49;;
66462;Laerm;56839;52.208;5.074;2022-08-05T00:27:37;39.53;32.28;50.97;;
66462;Laerm;56839;52.208;5.074;2022-08-05T00:27:48;38.30;34.09;46.25;;
66462;Laerm;56839;52.208;5.074;2022-08-05T00:27:59;38.00;33.02;46.93;;
66462;Laerm;56839;52.208;5.074;2022-08-05T00:28:10;39.36;33.18;49.10;;
66462;Laerm;56839;52.208;5.074;2022-08-05T00:28:21;38.87;33.79;48.16;;
66462;Laerm;56839;52.208;5.074;2022-08-05T00:28:33;39.94;34.23;51.70;;
66462;Laerm;56839;52.208;5.074;2022-08-05T00:28:44;41.87;33.41;57.13;;
66462;Laerm;56839;52.208;5.074;2022-08-05T00:28:56;42.01;31.74;57.71;;
66462;Laerm;56839;52.208;5.074;2022-08-05T00:29:06;39.84;33.79;53.72;;
66462;Laerm;56839;52.208;5.074;2022-08-05T00:29:17;40.28;33.43;48.06;;
66462;Laerm;56839;52.208;5.074;2022-08-05T00:29:27;41.44;33.92;54.20;;
66462;Laerm;56839;52.208;5.074;2022-08-05T00:29:38;40.96;33.87;53.97;;
66462;Laerm;56839;52.208;5.074;2022-08-05T00:29:48;36.63;33.31;44.58;;
66462;Laerm;56839;52.208;5.074;2022-08-05T00:29:59;36.03;32.61;44.50;;
66462;Laerm;56839;52.208;5.074;2022-08-05T00:30:10;37.57;33.10;44.93;;
66462;Laerm;56839;52.208;5.074;2022-08-05T00:30:21;38.99;34.37;46.30;;
66462;Laerm;56839;52.208;5.074;2022-08-05T00:30:31;41.21;36.07;49.38;;
66462;Laerm;56839;52.208;5.074;2022-08-05T00:30:42;42.68;35.67;54.05;;
66462;Laerm;56839;52.208;5.074;2022-08-05T00:30:52;41.37;33.98;48.74;;
66462;Laerm;56839;52.208;5.074;2022-08-05T00:31:03;41.15;34.60;50.24;;
66462;Laerm;56839;52.208;5.074;2022-08-05T00:31:14;42.17;35.28;49.55;;
66462;Laerm;56839;52.208;5.074;2022-08-05T00:31:24;40.03;34.14;48.57;;
66462;Laerm;56839;52.208;5.074;2022-08-05T00:31:34;39.38;35.86;44.82;;
66462;Laerm;56839;52.208;5.074;2022-08-05T00:31:45;42.26;37.33;52.77;;
66462;Laerm;56839;52.208;5.074;2022-08-05T00:31:56;43.03;35.75;50.34;;
66462;Laerm;56839;52.208;5.074;2022-08-05T00:32:07;43.75;35.14;55.18;;
66462;Laerm;56839;52.208;5.074;2022-08-05T00:32:21;40.79;35.12;49.24;;
66462;Laerm;56839;52.208;5.074;2022-08-05T00:32:32;39.85;35.05;49.91;;
66462;Laerm;56839;52.208;5.074;2022-08-05T00:32:42;39.71;34.25;47.64;;
66462;Laerm;56839;52.208;5.074;2022-08-05T00:32:52;41.44;35.35;50.29;;
66462;Laerm;56839;52.208;5.074;2022-08-05T00:33:03;43.29;34.86;55.31;;
66462;Laerm;56839;52.208;5.074;2022-08-05T00:33:14;39.03;32.96;48.60;;
66462;Laerm;56839;52.208;5.074;2022-08-05T00:33:25;38.91;32.37;49.61;;
66462;Laerm;56839;52.208;5.074;2022-08-05T00:33:35;34.82;32.47;41.48;;
66462;Laerm;56839;52.208;5.074;2022-08-05T00:33:46;34.80;31.62;40.01;;
66462;Laerm;56839;52.208;5.074;2022-08-05T00:33:57;37.21;32.48;50.73;;
66462;Laerm;56839;52.208;5.074;2022-08-05T00:34:07;36.43;31.97;40.40;;
66462;Laerm;56839;52.208;5.074;2022-08-05T00:34:18;36.77;31.79;48.42;;
66462;Laerm;56839;52.208;5.074;2022-08-05T00:34:28;34.65;31.46;43.55;;
66462;Laerm;56839;52.208;5.074;2022-08-05T00:34:39;35.39;31.88;39.72;;
66462;Laerm;56839;52.208;5.074;2022-08-05T00:34:49;36.55;32.56;43.82;;
66462;Laerm;56839;52.208;5.074;2022-08-05T00:35:00;36.08;33.05;40.97;;
66462;Laerm;56839;52.208;5.074;2022-08-05T00:35:10;38.82;32.88;48.37;;
66462;Laerm;56839;52.208;5.074;2022-08-05T00:35:21;37.64;33.31;44.07;;
66462;Laerm;56839;52.208;5.074;2022-08-05T00:35:31;40.32;33.38;51.67;;
66462;Laerm;56839;52.208;5.074;2022-08-05T00:35:41;38.86;33.20;47.89;;
66462;Laerm;56839;52.208;5.074;2022-08-05T00:35:52;38.62;34.68;46.77;;
66462;Laerm;56839;52.208;5.074;2022-08-05T00:36:02;38.25;33.82;46.31;;
66462;Laerm;56839;52.208;5.074;2022-08-05T00:36:13;41.84;34.88;50.46;;
66462;Laerm;56839;52.208;5.074;2022-08-05T00:36:23;42.68;34.28;53.85;;
66462;Laerm;56839;52.208;5.074;2022-08-05T00:36:34;39.67;33.56;48.72;;
66462;Laerm;56839;52.208;5.074;2022-08-05T00:36:45;36.60;31.83;44.76;;
66462;Laerm;56839;52.208;5.074;2022-08-05T00:36:56;35.44;32.39;40.47;;
66462;Laerm;56839;52.208;5.074;2022-08-05T00:37:07;37.15;32.47;49.10;;
66462;Laerm;56839;52.208;5.074;2022-08-05T00:37:18;34.00;31.31;39.62;;
66462;Laerm;56839;52.208;5.074;2022-08-05T00:37:28;35.15;31.81;42.06;;
66462;Laerm;56839;52.208;5.074;2022-08-05T00:37:39;41.46;31.94;54.17;;
66462;Laerm;56839;52.208;5.074;2022-08-05T00:37:50;38.35;32.81;48.04;;
66462;Laerm;56839;52.208;5.074;2022-08-05T00:38:01;39.03;33.24;49.25;;
66462;Laerm;56839;52.208;5.074;2022-08-05T00:38:13;41.05;34.56;52.61;;
66462;Laerm;56839;52.208;5.074;2022-08-05T00:38:23;36.14;32.46;43.55;;
66462;Laerm;56839;52.208;5.074;2022-08-05T00:38:35;37.51;33.14;46.06;;
66462;Laerm;56839;52.208;5.074;2022-08-05T00:38:45;36.21;32.32;44.34;;
66462;Laerm;56839;52.208;5.074;2022-08-05T00:38:56;35.29;31.45;44.75;;
66462;Laerm;56839;52.208;5.074;2022-08-05T00:39:09;34.01;30.89;39.65;;
66462;Laerm;56839;52.208;5.074;2022-08-05T00:39:20;34.29;31.37;43.17;;
66462;Laerm;56839;52.208;5.074;2022-08-05T00:39:31;33.74;30.17;41.80;;
66462;Laerm;56839;52.208;5.074;2022-08-05T00:39:42;32.43;29.99;36.60;;
66462;Laerm;56839;52.208;5.074;2022-08-05T00:39:53;33.11;30.29;37.72;;
66462;Laerm;56839;52.208;5.074;2022-08-05T00:40:04;33.81;29.92;47.38;;
66462;Laerm;56839;52.208;5.074;2022-08-05T00:40:15;35.47;30.66;48.15;;
66462;Laerm;56839;52.208;5.074;2022-08-05T00:40:26;35.29;31.39;46.50;;
66462;Laerm;56839;52.208;5.074;2022-08-05T00:40:50;34.22;31.97;38.93;;
66462;Laerm;56839;52.208;5.074;2022-08-05T00:41:01;35.01;31.70;42.17;;
66462;Laerm;56839;52.208;5.074;2022-08-05T00:41:11;35.71;31.28;48.40;;
66462;Laerm;56839;52.208;5.074;2022-08-05T00:41:26;35.76;31.91;45.40;;
66462;Laerm;56839;52.208;5.074;2022-08-05T00:41:37;34.66;30.70;42.77;;
66462;Laerm;56839;52.208;5.074;2022-08-05T00:41:48;36.09;31.56;46.07;;
66462;Laerm;56839;52.208;5.074;2022-08-05T00:41:58;35.28;30.38;44.64;;
66462;Laerm;56839;52.208;5.074;2022-08-05T00:42:09;36.15;30.52;49.16;;
66462;Laerm;56839;52.208;5.074;2022-08-05T00:42:30;34.56;30.41;43.55;;
66462;Laerm;56839;52.208;5.074;2022-08-05T00:42:41;36.13;30.24;54.45;;
66462;Laerm;56839;52.208;5.074;2022-08-05T00:42:52;34.27;30.56;41.56;;
66462;Laerm;56839;52.208;5.074;2022-08-05T00:43:03;34.67;30.50;44.88;;
66462;Laerm;56839;52.208;5.074;2022-08-05T00:43:14;35.47;31.58;42.96;;
66462;Laerm;56839;52.208;5.074;2022-08-05T00:43:25;34.50;30.20;40.92;;
66462;Laerm;56839;52.208;5.074;2022-08-05T00:43:36;35.57;30.03;44.07;;
66462;Laerm;56839;52.208;5.074;2022-08-05T00:43:49;32.59;29.91;41.47;;
66462;Laerm;56839;52.208;5.074;2022-08-05T00:44:00;34.13;31.54;38.65;;
66462;Laerm;56839;52.208;5.074;2022-08-05T00:44:11;38.48;31.67;49.33;;
66462;Laerm;56839;52.208;5.074;2022-08-05T00:44:23;37.01;30.85;47.82;;
66462;Laerm;56839;52.208;5.074;2022-08-05T00:44:33;34.70;30.95;42.31;;
66462;Laerm;56839;52.208;5.074;2022-08-05T00:44:44;35.15;30.93;43.73;;
66462;Laerm;56839;52.208;5.074;2022-08-05T00:44:55;35.90;31.96;45.89;;
66462;Laerm;56839;52.208;5.074;2022-08-05T00:45:07;39.14;32.21;49.06;;
66462;Laerm;56839;52.208;5.074;2022-08-05T00:45:18;36.83;31.03;50.28;;
66462;Laerm;56839;52.208;5.074;2022-08-05T00:45:29;34.18;31.04;40.74;;
66462;Laerm;56839;52.208;5.074;2022-08-05T00:45:40;33.58;30.41;43.44;;
66462;Laerm;56839;52.208;5.074;2022-08-05T00:45:50;37.08;30.71;45.12;;
66462;Laerm;56839;52.208;5.074;2022-08-05T00:46:02;35.14;30.77;41.06;;
66462;Laerm;56839;52.208;5.074;2022-08-05T00:46:13;41.92;33.02;51.72;;
66462;Laerm;56839;52.208;5.074;2022-08-05T00:46:24;39.52;33.12;52.48;;
66462;Laerm;56839;52.208;5.074;2022-08-05T00:46:37;38.27;30.95;51.69;;
66462;Laerm;56839;52.208;5.074;2022-08-05T00:46:48;35.62;32.02;41.46;;
66462;Laerm;56839;52.208;5.074;2022-08-05T00:46:59;35.15;31.70;41.31;;
66462;Laerm;56839;52.208;5.074;2022-08-05T00:47:09;37.00;31.88;42.61;;
66462;Laerm;56839;52.208;5.074;2022-08-05T00:47:20;38.36;33.99;44.36;;
66462;Laerm;56839;52.208;5.074;2022-08-05T00:47:31;38.69;33.59;44.19;;
66462;Laerm;56839;52.208;5.074;2022-08-05T00:47:42;36.13;32.64;42.28;;
66462;Laerm;56839;52.208;5.074;2022-08-05T00:47:52;36.12;32.10;45.17;;
66462;Laerm;56839;52.208;5.074;2022-08-05T00:48:03;35.31;31.98;42.13;;
66462;Laerm;56839;52.208;5.074;2022-08-05T00:48:18;34.40;31.54;39.24;;
66462;Laerm;56839;52.208;5.074;2022-08-05T00:48:29;37.12;32.09;44.54;;
66462;Laerm;56839;52.208;5.074;2022-08-05T00:48:39;38.43;33.21;45.28;;
66462;Laerm;56839;52.208;5.074;2022-08-05T00:48:50;35.56;31.35;42.41;;
66462;Laerm;56839;52.208;5.074;2022-08-05T00:49:01;33.66;31.27;40.20;;
66462;Laerm;56839;52.208;5.074;2022-08-05T00:49:11;35.64;31.04;44.05;;
66462;Laerm;56839;52.208;5.074;2022-08-05T00:49:22;35.08;31.12;47.29;;
66462;Laerm;56839;52.208;5.074;2022-08-05T00:49:33;34.36;31.26;40.09;;
66462;Laerm;56839;52.208;5.074;2022-08-05T00:49:43;35.03;31.15;43.16;;
66462;Laerm;56839;52.208;5.074;2022-08-05T00:49:53;35.92;31.08;46.41;;
66462;Laerm;56839;52.208;5.074;2022-08-05T00:50:04;33.48;30.54;37.95;;
66462;Laerm;56839;52.208;5.074;2022-08-05T00:50:14;35.22;31.92;41.74;;
66462;Laerm;56839;52.208;5.074;2022-08-05T00:50:25;34.61;31.27;41.61;;
66462;Laerm;56839;52.208;5.074;2022-08-05T00:50:35;32.70;30.23;38.47;;
66462;Laerm;56839;52.208;5.074;2022-08-05T00:50:47;32.62;30.53;37.97;;
66462;Laerm;56839;52.208;5.074;2022-08-05T00:50:58;36.76;31.72;44.74;;
66462;Laerm;56839;52.208;5.074;2022-08-05T00:51:08;39.66;33.39;47.58;;
66462;Laerm;56839;52.208;5.074;2022-08-05T00:51:19;36.74;32.09;46.75;;
66462;Laerm;56839;52.208;5.074;2022-08-05T00:51:29;36.95;31.22;50.78;;
66462;Laerm;56839;52.208;5.074;2022-08-05T00:51:40;42.40;31.51;52.62;;
66462;Laerm;56839;52.208;5.074;2022-08-05T00:51:50;34.05;30.99;40.38;;
66462;Laerm;56839;52.208;5.074;2022-08-05T00:52:00;34.92;31.15;42.29;;
66462;Laerm;56839;52.208;5.074;2022-08-05T00:52:11;35.08;31.38;40.89;;
66462;Laerm;56839;52.208;5.074;2022-08-05T00:52:21;37.91;31.64;48.77;;
66462;Laerm;56839;52.208;5.074;2022-08-05T00:52:32;36.94;31.21;47.20;;
66462;Laerm;56839;52.208;5.074;2022-08-05T00:52:42;38.17;32.36;52.19;;
66462;Laerm;56839;52.208;5.074;2022-08-05T00:52:52;38.70;31.45;48.01;;
66462;Laerm;56839;52.208;5.074;2022-08-05T00:53:03;43.33;31.24;56.41;;
66462;Laerm;56839;52.208;5.074;2022-08-05T00:53:14;37.48;31.03;48.69;;
66462;Laerm;56839;52.208;5.074;2022-08-05T00:53:25;35.08;31.46;41.28;;
66462;Laerm;56839;52.208;5.074;2022-08-05T00:53:36;33.90;31.41;38.32;;
66462;Laerm;56839;52.208;5.074;2022-08-05T00:53:46;34.48;31.10;43.86;;
66462;Laerm;56839;52.208;5.074;2022-08-05T00:53:56;41.46;31.69;54.80;;
66462;Laerm;56839;52.208;5.074;2022-08-05T00:54:07;39.14;33.44;52.24;;
66462;Laerm;56839;52.208;5.074;2022-08-05T00:54:17;36.31;31.71;45.50;;
66462;Laerm;56839;52.208;5.074;2022-08-05T00:54:28;34.48;31.34;42.49;;
66462;Laerm;56839;52.208;5.074;2022-08-05T00:54:38;32.88;31.07;37.15;;
66462;Laerm;56839;52.208;5.074;2022-08-05T00:54:48;34.82;32.00;40.54;;
66462;Laerm;56839;52.208;5.074;2022-08-05T00:54:59;34.36;31.03;40.75;;
66462;Laerm;56839;52.208;5.074;2022-08-05T00:55:09;33.11;30.42;44.32;;
66462;Laerm;56839;52.208;5.074;2022-08-05T00:55:21;35.65;30.88;51.25;;
66462;Laerm;56839;52.208;5.074;2022-08-05T00:55:32;34.11;31.27;42.35;;
66462;Laerm;56839;52.208;5.074;2022-08-05T00:55:43;34.68;30.76;45.14;;
66462;Laerm;56839;52.208;5.074;2022-08-05T00:55:53;36.68;31.64;44.02;;
66462;Laerm;56839;52.208;5.074;2022-08-05T00:56:04;36.87;32.17;43.21;;
66462;Laerm;56839;52.208;5.074;2022-08-05T00:56:15;34.39;30.91;39.69;;
66462;Laerm;56839;52.208;5.074;2022-08-05T00:56:26;33.91;30.84;44.46;;
66462;Laerm;56839;52.208;5.074;2022-08-05T00:56:36;38.36;33.04;47.18;;
66462;Laerm;56839;52.208;5.074;2022-08-05T00:56:47;37.67;32.19;46.61;;
66462;Laerm;56839;52.208;5.074;2022-08-05T00:56:57;37.69;31.88;44.70;;
66462;Laerm;56839;52.208;5.074;2022-08-05T00:57:08;37.76;32.34;45.27;;
66462;Laerm;56839;52.208;5.074;2022-08-05T00:57:18;36.02;32.81;43.16;;
66462;Laerm;56839;52.208;5.074;2022-08-05T00:57:28;43.96;34.16;54.50;;
66462;Laerm;56839;52.208;5.074;2022-08-05T00:57:39;40.94;34.44;47.57;;
66462;Laerm;56839;52.208;5.074;2022-08-05T00:57:49;38.84;34.56;44.36;;
66462;Laerm;56839;52.208;5.074;2022-08-05T00:57:59;40.31;34.52;50.74;;
66462;Laerm;56839;52.208;5.074;2022-08-05T00:58:10;42.16;35.67;51.01;;
66462;Laerm;56839;52.208;5.074;2022-08-05T00:58:21;38.90;32.09;51.74;;
66462;Laerm;56839;52.208;5.074;2022-08-05T00:58:32;34.32;31.51;43.23;;
66462;Laerm;56839;52.208;5.074;2022-08-05T00:58:42;33.80;31.28;40.76;;
66462;Laerm;56839;52.208;5.074;2022-08-05T00:58:53;32.84;31.09;35.26;;
66462;Laerm;56839;52.208;5.074;2022-08-05T00:59:03;33.40;31.33;37.16;;
66462;Laerm;56839;52.208;5.074;2022-08-05T00:59:14;33.50;31.46;38.65;;
66462;Laerm;56839;52.208;5.074;2022-08-05T00:59:24;37.86;32.13;46.32;;
66462;Laerm;56839;52.208;5.074;2022-08-05T00:59:35;34.86;31.58;49.10;;
66462;Laerm;56839;52.208;5.074;2022-08-05T00:59:47;37.49;33.77;47.13;;
66462;Laerm;56839;52.208;5.074;2022-08-05T00:59:57;37.42;34.41;50.85;;
66462;Laerm;56839;52.208;5.074;2022-08-05T01:00:08;34.73;33.13;37.70;;
66462;Laerm;56839;52.208;5.074;2022-08-05T01:00:18;36.41;33.77;43.60;;
66462;Laerm;56839;52.208;5.074;2022-08-05T01:00:29;37.28;33.46;47.97;;
66462;Laerm;56839;52.208;5.074;2022-08-05T01:00:40;36.02;33.04;42.62;;
66462;Laerm;56839;52.208;5.074;2022-08-05T01:00:50;39.57;32.36;52.28;;
66462;Laerm;56839;52.208;5.074;2022-08-05T01:01:01;40.69;33.16;50.23;;
66462;Laerm;56839;52.208;5.074;2022-08-05T01:01:12;38.46;32.44;51.70;;
66462;Laerm;56839;52.208;5.074;2022-08-05T01:01:24;33.53;31.51;42.52;;
66462;Laerm;56839;52.208;5.074;2022-08-05T01:01:34;36.93;31.02;51.04;;
66462;Laerm;56839;52.208;5.074;2022-08-05T01:01:45;34.60;31.27;42.91;;
66462;Laerm;56839;52.208;5.074;2022-08-05T01:01:55;39.01;31.58;55.44;;
66462;Laerm;56839;52.208;5.074;2022-08-05T01:02:06;39.93;32.51;54.32;;
66462;Laerm;56839;52.208;5.074;2022-08-05T01:02:16;39.66;34.02;51.49;;
66462;Laerm;56839;52.208;5.074;2022-08-05T01:02:27;39.93;33.22;50.03;;
66462;Laerm;56839;52.208;5.074;2022-08-05T01:02:38;38.46;33.49;45.78;;
66462;Laerm;56839;52.208;5.074;2022-08-05T01:02:48;42.25;33.53;53.63;;
66462;Laerm;56839;52.208;5.074;2022-08-05T01:02:59;35.44;31.69;45.86;;